Time;durP1;ratioP1;P1;durP2;ratioP2;P2;SDS_P1;SDS_P2;PMS_P1;PMS_P2;Temp;Humidity;BMP_temperature;BMP_pressure;BME280_temperature;BME280_humidity;BME280_pressure;Samples;Min_cycle;Max_cycle;Signal;HPM_P1;HPM_P2
2023/05/19 00:01:46;;;;;;;12.40;6.57;;;;;;;;;;5013539;28;20816;-66
2023/05/19 00:04:14;;;;;;;7.07;5.93;;;;;;;;;;5013773;28;20815;-66
2023/05/19 00:06:43;;;;;;;10.30;5.90;;;;;;;;;;5013233;28;20475;-66
2023/05/19 00:09:11;;;;;;;9.10;6.03;;;;;;;;;;5013512;28;20523;-65
2023/05/19 00:11:38;;;;;;;7.73;6.03;;;;;;;;;;5012865;28;21015;-66
2023/05/19 00:14:07;;;;;;;9.50;6.30;;;;;;;;;;5013027;28;20479;-65
2023/05/19 00:16:34;;;;;;;9.30;6.50;;;;;;;;;;5013409;28;20443;-68
2023/05/19 00:19:04;;;;;;;8.77;6.17;;;;;;;;;;5013562;28;20479;-65
2023/05/19 00:21:31;;;;;;;11.87;8.30;;;;;;;;;;5012794;28;20452;-66
2023/05/19 00:23:59;;;;;;;11.43;7.07;;;;;;;;;;5014379;28;20477;-66
2023/05/19 00:26:26;;;;;;;10.53;7.10;;;;;;;;;;5016568;28;20454;-66
2023/05/19 00:28:54;;;;;;;11.87;6.70;;;;;;;;;;5016095;28;20978;-65
2023/05/19 00:31:21;;;;;;;13.87;6.60;;;;;;;;;;5016495;28;20454;-65
2023/05/19 00:33:48;;;;;;;12.00;6.50;;;;;;;;;;5016249;28;20487;-66
2023/05/19 00:36:17;;;;;;;8.27;6.83;;;;;;;;;;5016836;28;20528;-66
2023/05/19 00:38:44;;;;;;;12.13;8.00;;;;;;;;;;5016140;28;20475;-65
2023/05/19 00:41:11;;;;;;;12.35;7.00;;;;;;;;;;5015956;28;20959;-65
2023/05/19 00:43:38;;;;;;;10.43;6.50;;;;;;;;;;5016230;28;20207;-66
2023/05/19 00:46:06;;;;;;;9.40;7.87;;;;;;;;;;5016177;28;20447;-66
2023/05/19 00:48:33;;;;;;;11.20;7.13;;;;;;;;;;5016021;28;20451;-66
2023/05/19 00:51:03;;;;;;;7.80;6.45;;;;;;;;;;5015985;28;20450;-66
2023/05/19 00:53:32;;;;;;;12.50;6.53;;;;;;;;;;5015609;28;20217;-66
2023/05/19 00:56:00;;;;;;;11.35;8.40;;;;;;;;;;5016808;28;20443;-66
2023/05/19 00:58:29;;;;;;;7.77;6.93;;;;;;;;;;5015971;28;20200;-66
2023/05/19 01:01:01;;;;;;;7.37;6.77;;;;;;;;;;5015865;28;20920;-65
2023/05/19 01:03:29;;;;;;;11.97;7.33;;;;;;;;;;5015707;28;20435;-66
2023/05/19 01:06:00;;;;;;;11.40;7.70;;;;;;;;;;5015742;28;20440;-66
2023/05/19 01:08:30;;;;;;;12.97;7.13;;;;;;;;;;5016139;28;20427;-66
2023/05/19 01:10:59;;;;;;;12.30;7.90;;;;;;;;;;5016123;28;20451;-66
2023/05/19 01:13:26;;;;;;;9.43;7.47;;;;;;;;;;5015472;28;20515;-66
2023/05/19 01:16:06;;;;;;;16.70;7.30;;;;;;;;;;5015661;28;20451;-65
2023/05/19 01:18:39;;;;;;;9.90;6.80;;;;;;;;;;5015249;28;20435;-65
2023/05/19 01:21:22;;;;;;;8.85;7.03;;;;;;;;;;5015997;28;20435;-66
2023/05/19 01:23:55;;;;;;;18.60;8.40;;;;;;;;;;5015637;28;20192;-66
2023/05/19 01:26:44;;;;;;;9.97;7.50;;;;;;;;;;5015163;28;20432;-66
2023/05/19 01:29:25;;;;;;;10.20;7.30;;;;;;;;;;5015510;28;20436;-66
2023/05/19 01:31:55;;;;;;;13.77;8.48;;;;;;;;;;5015581;28;20234;-66
2023/05/19 01:34:23;;;;;;;8.20;7.25;;;;;;;;;;5014694;28;20226;-67
2023/05/19 01:36:51;;;;;;;12.73;8.00;;;;;;;;;;5014363;28;20204;-66
2023/05/19 01:39:19;;;;;;;10.20;9.10;;;;;;;;;;5014658;28;20228;-66
2023/05/19 01:41:47;;;;;;;10.70;8.40;;;;;;;;;;5015165;28;20446;-65
2023/05/19 01:44:14;;;;;;;8.20;7.32;;;;;;;;;;5015024;28;20214;-66
2023/05/19 01:46:42;;;;;;;9.65;8.45;;;;;;;;;;5015026;28;20258;-66
2023/05/19 01:49:11;;;;;;;8.77;7.95;;;;;;;;;;5014657;28;20740;-65
2023/05/19 01:51:38;;;;;;;10.05;8.10;;;;;;;;;;5014929;28;20199;-65
2023/05/19 01:54:06;;;;;;;10.50;8.10;;;;;;;;;;5014930;28;20222;-66
2023/05/19 01:56:39;;;;;;;10.10;8.90;;;;;;;;;;5014867;28;20447;-66
2023/05/19 01:59:13;;;;;;;9.23;8.33;;;;;;;;;;5015238;28;20785;-66
2023/05/19 02:01:43;;;;;;;12.63;9.70;;;;;;;;;;5014786;28;20438;-66
2023/05/19 02:04:18;;;;;;;14.10;8.70;;;;;;;;;;5015007;28;20893;-66
2023/05/19 02:06:48;;;;;;;11.70;8.17;;;;;;;;;;5015224;28;20223;-66
2023/05/19 02:09:16;;;;;;;10.03;8.50;;;;;;;;;;5014869;28;20546;-68
2023/05/19 02:11:47;;;;;;;9.30;8.07;;;;;;;;;;5014570;28;20453;-66
2023/05/19 02:14:16;;;;;;;13.43;10.27;;;;;;;;;;5014533;28;20212;-66
2023/05/19 02:16:46;;;;;;;14.20;8.40;;;;;;;;;;5014743;28;20193;-66
2023/05/19 02:19:22;;;;;;;9.50;8.60;;;;;;;;;;5014091;28;20445;-66
2023/05/19 02:21:49;;;;;;;12.98;8.50;;;;;;;;;;5014381;28;20626;-66
2023/05/19 02:24:16;;;;;;;13.10;9.38;;;;;;;;;;5014277;28;20231;-66
2023/05/19 02:26:44;;;;;;;11.85;10.15;;;;;;;;;;5014007;28;20211;-66
2023/05/19 02:29:11;;;;;;;14.05;9.30;;;;;;;;;;5013897;28;20267;-66
2023/05/19 02:31:38;;;;;;;11.07;9.07;;;;;;;;;;5014562;28;20207;-66
2023/05/19 02:34:07;;;;;;;12.20;9.15;;;;;;;;;;5013994;28;20479;-65
2023/05/19 02:36:36;;;;;;;14.60;9.80;;;;;;;;;;5014200;28;20295;-66
2023/05/19 02:39:03;;;;;;;10.98;8.25;;;;;;;;;;5013831;28;20290;-66
2023/05/19 02:41:31;;;;;;;9.50;7.82;;;;;;;;;;5014119;28;20220;-66
2023/05/19 02:43:58;;;;;;;10.70;8.57;;;;;;;;;;5014325;28;20200;-65
2023/05/19 02:46:26;;;;;;;11.10;9.00;;;;;;;;;;5013675;28;20230;-66
2023/05/19 02:48:53;;;;;;;11.73;8.32;;;;;;;;;;5013944;28;20453;-66
2023/05/19 02:51:20;;;;;;;17.47;9.10;;;;;;;;;;5013924;28;20200;-66
2023/05/19 02:53:49;;;;;;;10.50;9.10;;;;;;;;;;5014191;28;20486;-66
2023/05/19 02:56:16;;;;;;;11.63;9.38;;;;;;;;;;5013876;28;20311;-66
2023/05/19 02:58:44;;;;;;;10.50;8.47;;;;;;;;;;5013464;28;20206;-66
2023/05/19 03:01:11;;;;;;;14.57;9.70;;;;;;;;;;5013850;28;20439;-66
2023/05/19 03:03:38;;;;;;;13.35;9.45;;;;;;;;;;5013810;28;20203;-66
2023/05/19 03:06:07;;;;;;;12.68;10.25;;;;;;;;;;5013420;28;20200;-66
2023/05/19 03:08:34;;;;;;;17.17;11.70;;;;;;;;;;5013457;28;20251;-66
2023/05/19 03:11:03;;;;;;;14.48;8.77;;;;;;;;;;5013649;28;20443;-65
2023/05/19 03:13:30;;;;;;;9.70;8.73;;;;;;;;;;5013995;28;20200;-66
2023/05/19 03:15:58;;;;;;;13.90;9.70;;;;;;;;;;5013720;28;20200;-65
2023/05/19 03:18:25;;;;;;;15.20;9.48;;;;;;;;;;5013651;28;20455;-66
2023/05/19 03:20:53;;;;;;;16.60;9.73;;;;;;;;;;5013698;28;20218;-66
2023/05/19 03:23:20;;;;;;;16.15;10.32;;;;;;;;;;5013630;28;20254;-65
2023/05/19 03:25:47;;;;;;;21.10;9.60;;;;;;;;;;5013680;28;20202;-66
2023/05/19 03:28:16;;;;;;;12.23;9.85;;;;;;;;;;5013749;28;20255;-66
2023/05/19 03:30:43;;;;;;;15.10;10.02;;;;;;;;;;5012518;28;20196;-68
2023/05/19 03:33:11;;;;;;;14.43;9.32;;;;;;;;;;5012743;28;20200;-66
2023/05/19 03:35:38;;;;;;;13.93;10.23;;;;;;;;;;5012604;28;20224;-65
2023/05/19 03:38:05;;;;;;;14.30;9.95;;;;;;;;;;5012048;28;20223;-66
2023/05/19 03:40:32;;;;;;;20.60;10.40;;;;;;;;;;5012195;28;20185;-65
2023/05/19 03:43:00;;;;;;;12.07;9.35;;;;;;;;;;5012219;28;20228;-66
2023/05/19 03:45:28;;;;;;;11.52;10.02;;;;;;;;;;5012442;28;20649;-66
2023/05/19 03:47:56;;;;;;;15.20;9.35;;;;;;;;;;5013010;28;20196;-66
2023/05/19 03:50:23;;;;;;;12.40;8.52;;;;;;;;;;5011897;28;20196;-66
2023/05/19 03:52:50;;;;;;;11.20;8.60;;;;;;;;;;5012272;28;20307;-66
2023/05/19 03:55:19;;;;;;;11.80;9.23;;;;;;;;;;5012110;28;20216;-66
2023/05/19 03:57:46;;;;;;;12.85;8.70;;;;;;;;;;5012409;28;20200;-66
2023/05/19 04:00:14;;;;;;;11.80;9.07;;;;;;;;;;5015960;28;20199;-66
2023/05/19 04:02:42;;;;;;;10.57;9.57;;;;;;;;;;5016106;28;20209;-66
2023/05/19 04:05:10;;;;;;;18.88;8.95;;;;;;;;;;5016670;28;20214;-66
2023/05/19 04:07:37;;;;;;;13.90;9.15;;;;;;;;;;5016807;28;20196;-66
2023/05/19 04:10:04;;;;;;;13.30;8.80;;;;;;;;;;5016518;28;20206;-66
2023/05/19 04:12:32;;;;;;;11.48;8.07;;;;;;;;;;5016151;28;20203;-66
2023/05/19 04:14:59;;;;;;;16.55;8.40;;;;;;;;;;5016416;28;20216;-66
2023/05/19 04:17:26;;;;;;;11.45;8.60;;;;;;;;;;5016886;28;20200;-66
2023/05/19 04:19:55;;;;;;;18.40;8.25;;;;;;;;;;5016432;28;20203;-66
2023/05/19 04:22:22;;;;;;;13.10;9.80;;;;;;;;;;5015561;28;20204;-66
2023/05/19 04:24:51;;;;;;;10.80;8.23;;;;;;;;;;5016275;28;20207;-67
2023/05/19 04:27:20;;;;;;;10.73;8.75;;;;;;;;;;5016347;28;20279;-66
2023/05/19 04:29:48;;;;;;;8.95;8.05;;;;;;;;;;5016142;28;20199;-69
2023/05/19 04:32:16;;;;;;;13.43;8.70;;;;;;;;;;5015512;28;20201;-66
2023/05/19 04:34:45;;;;;;;19.75;9.75;;;;;;;;;;5016527;28;20263;-66
2023/05/19 04:37:15;;;;;;;10.40;7.63;;;;;;;;;;5016169;28;20196;-66
2023/05/19 04:39:44;;;;;;;14.10;7.63;;;;;;;;;;5016276;28;20319;-66
2023/05/19 04:42:12;;;;;;;10.02;7.97;;;;;;;;;;5015254;28;20258;-65
2023/05/19 04:44:39;;;;;;;10.75;8.35;;;;;;;;;;5016185;28;20196;-67
2023/05/19 04:47:07;;;;;;;10.82;7.60;;;;;;;;;;5015922;28;20238;-67
2023/05/19 04:49:37;;;;;;;8.73;7.40;;;;;;;;;;5015788;28;20204;-67
2023/05/19 04:52:06;;;;;;;14.48;7.28;;;;;;;;;;5015376;28;20188;-68
2023/05/19 04:54:34;;;;;;;13.25;7.82;;;;;;;;;;5015868;28;20232;-68
2023/05/19 04:57:02;;;;;;;11.10;7.37;;;;;;;;;;5015443;28;20205;-68
2023/05/19 04:59:29;;;;;;;8.30;7.50;;;;;;;;;;5015382;28;20443;-70
2023/05/19 05:01:57;;;;;;;9.00;7.35;;;;;;;;;;5014727;28;20940;-66
2023/05/19 05:04:24;;;;;;;10.57;7.17;;;;;;;;;;5015346;28;20204;-68
2023/05/19 05:06:51;;;;;;;14.67;7.90;;;;;;;;;;5015623;28;20459;-66
2023/05/19 05:09:19;;;;;;;12.07;7.10;;;;;;;;;;5015444;28;20866;-67
2023/05/19 05:11:48;;;;;;;11.50;7.27;;;;;;;;;;5014956;28;20444;-68
2023/05/19 05:14:16;;;;;;;10.57;7.20;;;;;;;;;;5015364;28;20471;-67
2023/05/19 05:16:43;;;;;;;7.57;6.40;;;;;;;;;;5015037;28;20443;-67
2023/05/19 05:19:11;;;;;;;18.70;6.97;;;;;;;;;;5015531;28;20450;-67
2023/05/19 05:21:38;;;;;;;9.03;7.17;;;;;;;;;;5014811;28;20446;-68
2023/05/19 05:24:05;;;;;;;10.00;7.23;;;;;;;;;;5014693;28;20925;-67
2023/05/19 05:26:34;;;;;;;13.00;6.87;;;;;;;;;;5014786;28;20515;-67
2023/05/19 05:29:02;;;;;;;9.83;6.60;;;;;;;;;;5014796;28;20501;-67
2023/05/19 05:31:30;;;;;;;11.87;10.60;;;;;;;;;;5014345;28;20470;-67
2023/05/19 05:33:57;;;;;;;16.70;13.10;;;;;;;;;;5014916;28;20451;-68
2023/05/19 05:36:24;;;;;;;12.00;7.17;;;;;;;;;;5015024;28;20494;-67
2023/05/19 05:38:51;;;;;;;9.80;6.50;;;;;;;;;;5015345;28;20479;-67
2023/05/19 05:41:19;;;;;;;7.23;5.73;;;;;;;;;;5013960;28;20534;-67
2023/05/19 05:43:46;;;;;;;11.90;7.33;;;;;;;;;;5014492;28;20452;-68
2023/05/19 05:46:14;;;;;;;9.67;5.70;;;;;;;;;;5014683;28;20874;-67
2023/05/19 05:48:42;;;;;;;8.70;6.40;;;;;;;;;;5015526;28;20447;-66
2023/05/19 05:51:09;;;;;;;6.20;5.57;;;;;;;;;;5014623;28;20452;-67
2023/05/19 05:53:41;;;;;;;5.77;5.27;;;;;;;;;;5014580;28;20802;-67
2023/05/19 05:56:09;;;;;;;12.87;4.97;;;;;;;;;;5014320;28;20575;-67
2023/05/19 05:58:39;;;;;;;8.00;4.87;;;;;;;;;;5014676;28;20468;-67
2023/05/19 06:01:09;;;;;;;15.97;10.20;;;;;;;;;;5013948;28;20956;-67
2023/05/19 06:03:38;;;;;;;8.97;7.40;;;;;;;;;;5013782;28;20929;-67
2023/05/19 06:06:05;;;;;;;7.17;5.17;;;;;;;;;;5013896;28;20537;-67
2023/05/19 06:08:32;;;;;;;6.50;4.70;;;;;;;;;;5014176;28;20441;-67
2023/05/19 06:11:00;;;;;;;11.00;5.30;;;;;;;;;;5014072;28;20439;-67
2023/05/19 06:13:27;;;;;;;12.90;5.53;;;;;;;;;;5014073;28;20452;-68
2023/05/19 06:15:54;;;;;;;8.10;4.93;;;;;;;;;;5014112;28;20493;-68
2023/05/19 06:18:21;;;;;;;5.67;4.27;;;;;;;;;;5013961;28;20548;-67
2023/05/19 06:20:50;;;;;;;7.67;4.97;;;;;;;;;;5013724;28;20458;-68
2023/05/19 06:23:17;;;;;;;6.00;5.13;;;;;;;;;;5013103;28;20539;-67
2023/05/19 06:25:44;;;;;;;12.37;5.00;;;;;;;;;;5013724;28;20454;-66
2023/05/19 06:28:12;;;;;;;7.70;5.13;;;;;;;;;;5014042;28;20535;-67
2023/05/19 06:30:39;;;;;;;14.37;5.40;;;;;;;;;;5013626;28;20526;-67
2023/05/19 06:33:06;;;;;;;7.80;5.47;;;;;;;;;;5013745;28;20451;-67
2023/05/19 06:35:33;;;;;;;12.70;4.93;;;;;;;;;;5013906;28;20502;-67
2023/05/19 06:38:02;;;;;;;6.20;4.57;;;;;;;;;;5013788;28;20984;-68
2023/05/19 06:40:29;;;;;;;10.83;4.83;;;;;;;;;;5013948;28;20429;-67
2023/05/19 06:42:56;;;;;;;9.10;4.33;;;;;;;;;;5013333;28;20440;-67
2023/05/19 06:45:24;;;;;;;10.83;4.90;;;;;;;;;;5013393;28;20446;-67
2023/05/19 06:47:52;;;;;;;9.53;5.07;;;;;;;;;;5013502;28;20487;-67
2023/05/19 06:50:20;;;;;;;8.47;4.80;;;;;;;;;;5013536;28;20447;-68
2023/05/19 06:52:47;;;;;;;9.80;4.80;;;;;;;;;;5013022;28;20971;-67
2023/05/19 06:55:15;;;;;;;9.83;5.03;;;;;;;;;;5013774;28;20481;-67
2023/05/19 06:57:42;;;;;;;6.00;4.50;;;;;;;;;;5013865;28;20440;-67
2023/05/19 07:00:11;;;;;;;9.07;5.07;;;;;;;;;;5013245;28;20460;-67
2023/05/19 07:02:38;;;;;;;8.20;5.20;;;;;;;;;;5012879;28;20452;-67
2023/05/19 07:05:06;;;;;;;7.10;4.40;;;;;;;;;;5013312;28;20456;-67
2023/05/19 07:07:34;;;;;;;7.20;4.33;;;;;;;;;;5013786;28;20455;-67
2023/05/19 07:10:01;;;;;;;10.03;5.50;;;;;;;;;;5013467;28;20445;-67
2023/05/19 07:12:30;;;;;;;5.87;4.57;;;;;;;;;;5013277;28;20527;-67
2023/05/19 07:14:57;;;;;;;9.23;4.37;;;;;;;;;;5013381;28;20543;-67
2023/05/19 07:17:24;;;;;;;7.03;4.57;;;;;;;;;;5013123;28;20448;-67
2023/05/19 07:19:51;;;;;;;8.23;4.93;;;;;;;;;;5013261;28;20444;-67
2023/05/19 07:22:18;;;;;;;12.00;4.63;;;;;;;;;;5012816;28;20872;-68
2023/05/19 07:24:46;;;;;;;6.60;3.90;;;;;;;;;;5013149;28;20806;-68
2023/05/19 07:27:13;;;;;;;6.77;4.87;;;;;;;;;;5013441;28;20441;-67
2023/05/19 07:29:41;;;;;;;9.50;4.10;;;;;;;;;;5013307;28;20544;-67
2023/05/19 07:32:08;;;;;;;7.13;4.33;;;;;;;;;;5013690;28;20444;-67
2023/05/19 07:34:36;;;;;;;6.57;4.20;;;;;;;;;;5017333;28;20445;-67
2023/05/19 07:37:03;;;;;;;15.40;4.40;;;;;;;;;;5016870;28;20492;-67
2023/05/19 07:39:31;;;;;;;7.90;4.10;;;;;;;;;;5017157;28;20476;-67
2023/05/19 07:41:58;;;;;;;9.53;4.03;;;;;;;;;;5017216;28;20449;-67
2023/05/19 07:44:25;;;;;;;7.13;4.03;;;;;;;;;;5016808;28;20450;-68
2023/05/19 07:46:54;;;;;;;7.03;3.40;;;;;;;;;;5017083;28;20460;-67
2023/05/19 07:49:21;;;;;;;6.50;3.67;;;;;;;;;;5016999;28;20524;-67
2023/05/19 07:51:48;;;;;;;6.20;3.80;;;;;;;;;;5016993;28;20447;-67
2023/05/19 07:54:16;;;;;;;10.50;4.03;;;;;;;;;;5017281;28;20806;-67
2023/05/19 07:56:43;;;;;;;7.57;3.93;;;;;;;;;;5017180;28;20482;-67
2023/05/19 07:59:10;;;;;;;5.37;3.10;;;;;;;;;;5016869;28;20472;-67
2023/05/19 08:01:37;;;;;;;9.77;4.30;;;;;;;;;;5016887;28;20788;-67
2023/05/19 08:04:06;;;;;;;10.03;4.53;;;;;;;;;;5016311;28;20962;-67
2023/05/19 08:06:34;;;;;;;7.77;3.20;;;;;;;;;;5016551;28;20450;-66
2023/05/19 08:09:01;;;;;;;5.50;3.20;;;;;;;;;;5016822;28;20446;-67
2023/05/19 08:11:28;;;;;;;6.03;3.13;;;;;;;;;;5016584;28;20446;-67
2023/05/19 08:13:55;;;;;;;8.30;2.70;;;;;;;;;;5016313;28;20450;-67
2023/05/19 08:16:23;;;;;;;5.20;2.80;;;;;;;;;;5015066;28;20509;-68
2023/05/19 08:18:50;;;;;;;5.17;2.90;;;;;;;;;;5015634;28;20450;-68
2023/05/19 08:21:19;;;;;;;5.90;3.30;;;;;;;;;;5016504;28;20446;-66
2023/05/19 08:23:46;;;;;;;8.13;3.77;;;;;;;;;;5016058;28;20473;-66
2023/05/19 08:26:13;;;;;;;8.63;3.00;;;;;;;;;;5016102;28;20457;-66
2023/05/19 08:28:40;;;;;;;4.97;3.50;;;;;;;;;;5016110;28;20449;-66
2023/05/19 08:31:07;;;;;;;4.43;2.80;;;;;;;;;;5016038;28;20452;-66
2023/05/19 08:33:35;;;;;;;6.67;2.60;;;;;;;;;;5016218;28;20533;-66
2023/05/19 08:36:02;;;;;;;4.90;2.63;;;;;;;;;;5015149;28;20621;-66
2023/05/19 08:38:30;;;;;;;3.63;2.70;;;;;;;;;;5015712;28;20470;-66
2023/05/19 08:40:57;;;;;;;5.63;2.60;;;;;;;;;;5015874;28;20460;-66
2023/05/19 08:43:25;;;;;;;10.67;2.97;;;;;;;;;;5015938;28;20822;-66
2023/05/19 08:45:54;;;;;;;5.10;2.93;;;;;;;;;;5015313;28;20456;-65
2023/05/19 08:48:22;;;;;;;4.47;2.50;;;;;;;;;;5016216;28;20542;-66
2023/05/19 08:50:52;;;;;;;10.27;7.83;;;;;;;;;;5015801;28;20489;-65
2023/05/19 08:53:21;;;;;;;3.10;2.47;;;;;;;;;;5015883;28;20443;-65
2023/05/19 08:55:57;;;;;;;5.17;2.50;;;;;;;;;;5015161;28;20487;-66
2023/05/19 08:58:25;;;;;;;5.93;2.50;;;;;;;;;;5015383;28;20437;-65
2023/05/19 09:00:52;;;;;;;10.83;2.30;;;;;;;;;;5015534;28;20524;-66
2023/05/19 09:03:19;;;;;;;4.93;2.20;;;;;;;;;;5015677;28;20453;-67
2023/05/19 09:05:47;;;;;;;3.50;2.40;;;;;;;;;;5015633;28;20456;-67
2023/05/19 09:08:14;;;;;;;10.33;3.10;;;;;;;;;;5015901;28;20453;-67
2023/05/19 09:10:42;;;;;;;3.37;2.47;;;;;;;;;;5015447;28;20451;-67
2023/05/19 09:13:10;;;;;;;3.80;2.40;;;;;;;;;;5016177;28;20442;-66
2023/05/19 09:15:40;;;;;;;12.03;2.83;;;;;;;;;;5014871;28;20505;-68
2023/05/19 09:18:08;;;;;;;6.47;3.17;;;;;;;;;;5014859;28;20444;-68
2023/05/19 09:20:38;;;;;;;7.90;3.83;;;;;;;;;;5015225;28;20503;-67
2023/05/19 09:23:06;;;;;;;8.30;3.37;;;;;;;;;;5016006;28;20478;-67
2023/05/19 09:25:34;;;;;;;6.00;2.83;;;;;;;;;;5014933;28;20479;-67
2023/05/19 09:28:01;;;;;;;2.97;2.70;;;;;;;;;;5015047;28;20457;-68
2023/05/19 09:30:30;;;;;;;4.27;2.20;;;;;;;;;;5014923;28;20447;-68
2023/05/19 09:32:57;;;;;;;4.90;3.43;;;;;;;;;;5015585;28;20485;-67
2023/05/19 09:35:24;;;;;;;7.00;4.03;;;;;;;;;;5015279;28;20445;-68
2023/05/19 09:37:52;;;;;;;5.67;2.87;;;;;;;;;;5014957;28;20458;-68
2023/05/19 09:40:19;;;;;;;5.80;2.87;;;;;;;;;;5015061;28;20434;-68
2023/05/19 09:42:47;;;;;;;4.77;3.43;;;;;;;;;;5015502;28;20437;-69
2023/05/19 09:45:15;;;;;;;3.50;2.57;;;;;;;;;;5015040;28;20578;-68
2023/05/19 09:47:43;;;;;;;4.03;2.73;;;;;;;;;;5014718;28;20459;-68
2023/05/19 09:50:12;;;;;;;5.33;2.90;;;;;;;;;;5013769;28;20469;-69
2023/05/19 09:52:40;;;;;;;8.30;4.60;;;;;;;;;;5014182;28;20530;-68
2023/05/19 09:55:10;;;;;;;11.40;6.53;;;;;;;;;;5014245;28;20541;-67
2023/05/19 09:57:38;;;;;;;4.87;2.40;;;;;;;;;;5014090;28;20479;-67
2023/05/19 10:00:13;;;;;;;5.37;2.93;;;;;;;;;;5014577;28;20443;-67
2023/05/19 10:02:42;;;;;;;4.17;2.60;;;;;;;;;;5015052;28;20548;-67
2023/05/19 10:05:11;;;;;;;6.97;2.80;;;;;;;;;;5014519;28;20449;-68
2023/05/19 10:07:40;;;;;;;7.80;3.37;;;;;;;;;;5014488;28;20457;-68
2023/05/19 10:10:09;;;;;;;6.60;3.53;;;;;;;;;;5014060;28;20445;-68
2023/05/19 10:12:38;;;;;;;7.63;5.67;;;;;;;;;;5014144;28;20452;-68
2023/05/19 10:15:05;;;;;;;5.03;2.33;;;;;;;;;;5014274;28;20864;-67
2023/05/19 10:17:41;;;;;;;3.03;2.03;;;;;;;;;;5090909;27;20584;-67
2023/05/19 10:20:11;;;;;;;6.30;2.47;;;;;;;;;;5090685;28;20459;-68
2023/05/19 10:22:38;;;;;;;6.53;2.67;;;;;;;;;;5090918;28;20529;-67
2023/05/19 10:25:06;;;;;;;4.60;2.10;;;;;;;;;;5090907;28;20442;-68
2023/05/19 10:27:36;;;;;;;9.20;2.60;;;;;;;;;;5090830;28;20782;-67
2023/05/19 10:30:06;;;;;;;7.10;3.50;;;;;;;;;;5090392;28;20447;-68
2023/05/19 10:32:34;;;;;;;6.40;3.00;;;;;;;;;;5089932;28;20529;-71
2023/05/19 10:35:13;;;;;;;8.60;2.90;;;;;;;;;;5089946;28;20442;-68
2023/05/19 10:37:42;;;;;;;6.47;5.57;;;;;;;;;;5090487;28;20465;-70
2023/05/19 10:40:13;;;;;;;5.20;3.30;;;;;;;;;;5090098;28;21014;-67
2023/05/19 10:42:44;;;;;;;3.77;2.70;;;;;;;;;;5090688;28;20417;-68
2023/05/19 10:45:14;;;;;;;5.73;2.50;;;;;;;;;;5090688;28;20445;-67
2023/05/19 10:47:41;;;;;;;5.50;2.73;;;;;;;;;;5090660;28;20811;-67
2023/05/19 10:50:11;;;;;;;2.73;2.53;;;;;;;;;;5090042;28;20804;-68
2023/05/19 10:52:38;;;;;;;5.50;3.20;;;;;;;;;;5089613;28;20454;-68
2023/05/19 10:55:07;;;;;;;2.47;2.17;;;;;;;;;;5090044;28;20445;-67
2023/05/19 10:57:35;;;;;;;4.53;3.17;;;;;;;;;;5090128;28;20483;-67
2023/05/19 11:00:10;;;;;;;8.53;2.80;;;;;;;;;;5089794;28;20454;-67
2023/05/19 11:02:38;;;;;;;8.80;2.80;;;;;;;;;;5090023;28;20538;-68
2023/05/19 11:05:09;;;;;;;4.23;2.87;;;;;;;;;;5090388;28;20437;-67
2023/05/19 11:07:37;;;;;;;4.70;2.50;;;;;;;;;;5089595;28;20437;-67
2023/05/19 11:10:08;;;;;;;7.33;2.93;;;;;;;;;;5089748;28;20447;-68
2023/05/19 11:12:42;;;;;;;7.70;3.07;;;;;;;;;;5089096;28;20531;-67
2023/05/19 11:15:12;;;;;;;6.30;3.77;;;;;;;;;;5089634;28;20431;-67
2023/05/19 11:17:41;;;;;;;4.90;2.87;;;;;;;;;;5089395;28;20467;-67
2023/05/19 11:20:11;;;;;;;7.67;3.00;;;;;;;;;;5089975;28;20441;-67
2023/05/19 11:22:40;;;;;;;5.17;2.63;;;;;;;;;;5089635;28;20439;-67
2023/05/19 11:25:08;;;;;;;4.97;3.10;;;;;;;;;;5089595;28;20436;-68
2023/05/19 11:27:38;;;;;;;5.60;4.60;;;;;;;;;;5083760;28;20534;-67
2023/05/19 11:30:13;;;;;;;5.17;3.20;;;;;;;;;;5075811;28;20910;-67
2023/05/19 11:32:42;;;;;;;4.33;2.63;;;;;;;;;;5075679;28;20525;-67
2023/05/19 11:35:10;;;;;;;7.13;4.50;;;;;;;;;;5075962;28;20446;-66
2023/05/19 11:37:39;;;;;;;5.17;2.70;;;;;;;;;;5075784;28;20482;-67
2023/05/19 11:40:09;;;;;;;5.17;2.90;;;;;;;;;;5075942;28;20788;-67
2023/05/19 11:42:37;;;;;;;8.90;3.10;;;;;;;;;;5075479;28;20435;-67
2023/05/19 11:45:04;;;;;;;4.30;2.70;;;;;;;;;;5075820;28;20466;-67
2023/05/19 11:47:33;;;;;;;8.30;4.20;;;;;;;;;;5076158;28;20458;-67
2023/05/19 11:50:00;;;;;;;5.77;3.23;;;;;;;;;;5076279;28;20502;-67
2023/05/19 11:52:27;;;;;;;9.00;4.10;;;;;;;;;;5074269;28;20941;-67
2023/05/19 11:54:55;;;;;;;4.30;3.90;;;;;;;;;;5074705;28;20447;-68
2023/05/19 11:57:24;;;;;;;5.13;2.57;;;;;;;;;;5075256;28;20490;-67
2023/05/19 11:59:52;;;;;;;10.83;3.30;;;;;;;;;;5075842;28;20982;-67
2023/05/19 12:02:20;;;;;;;7.13;2.97;;;;;;;;;;5075711;28;20597;-66
2023/05/19 12:04:48;;;;;;;4.20;2.77;;;;;;;;;;5075413;28;20437;-66
2023/05/19 12:07:17;;;;;;;4.60;2.93;;;;;;;;;;5074786;28;20443;-67
2023/05/19 12:09:45;;;;;;;4.93;3.03;;;;;;;;;;5075383;28;20447;-67
2023/05/19 12:12:14;;;;;;;7.67;2.97;;;;;;;;;;5074792;28;20447;-67
2023/05/19 12:14:42;;;;;;;6.43;2.70;;;;;;;;;;5074533;28;20451;-67
2023/05/19 12:17:13;;;;;;;7.60;3.20;;;;;;;;;;5074673;28;20488;-67
2023/05/19 12:19:41;;;;;;;4.63;3.20;;;;;;;;;;5075465;28;20537;-67
2023/05/19 12:22:08;;;;;;;5.80;2.73;;;;;;;;;;5074724;28;20489;-67
2023/05/19 12:24:36;;;;;;;6.67;2.67;;;;;;;;;;5075040;28;20531;-66
2023/05/19 12:27:07;;;;;;;6.53;2.43;;;;;;;;;;5074473;28;20448;-67
2023/05/19 12:29:35;;;;;;;6.43;2.70;;;;;;;;;;5074974;28;20471;-67
2023/05/19 12:32:03;;;;;;;4.57;2.97;;;;;;;;;;5074600;28;20480;-67
2023/05/19 12:34:31;;;;;;;8.00;3.30;;;;;;;;;;5074624;28;20443;-68
2023/05/19 12:36:59;;;;;;;5.13;2.90;;;;;;;;;;5074318;28;20566;-68
2023/05/19 12:39:26;;;;;;;7.23;4.03;;;;;;;;;;5073956;28;20433;-67
2023/05/19 12:41:53;;;;;;;7.70;2.93;;;;;;;;;;5074596;28;20507;-67
2023/05/19 12:44:20;;;;;;;8.30;3.43;;;;;;;;;;5074633;28;20483;-67
2023/05/19 12:46:52;;;;;;;6.53;3.10;;;;;;;;;;5074447;28;20463;-67
2023/05/19 12:49:21;;;;;;;4.27;2.60;;;;;;;;;;5074378;28;20424;-67
2023/05/19 12:51:52;;;;;;;4.63;3.00;;;;;;;;;;5073912;28;20450;-68
2023/05/19 12:54:19;;;;;;;4.00;2.80;;;;;;;;;;5073707;28;21007;-68
2023/05/19 12:56:50;;;;;;;4.50;3.00;;;;;;;;;;5073779;28;20479;-68
2023/05/19 12:59:21;;;;;;;6.30;2.57;;;;;;;;;;5074227;28;20436;-68
2023/05/19 13:01:55;;;;;;;5.87;3.00;;;;;;;;;;5074477;28;20792;-68
2023/05/19 13:04:24;;;;;;;3.70;2.73;;;;;;;;;;5073899;28;20899;-67
2023/05/19 13:06:51;;;;;;;3.00;2.67;;;;;;;;;;5074146;28;20562;-67
2023/05/19 13:09:18;;;;;;;5.87;2.73;;;;;;;;;;5073969;28;20446;-67
2023/05/19 13:11:49;;;;;;;6.20;2.87;;;;;;;;;;5073539;28;20452;-67
2023/05/19 13:14:17;;;;;;;6.90;2.53;;;;;;;;;;5074134;28;20762;-67
2023/05/19 13:16:45;;;;;;;5.40;3.10;;;;;;;;;;5073534;28;20491;-67
2023/05/19 13:19:12;;;;;;;5.10;2.60;;;;;;;;;;5073764;28;20445;-67
2023/05/19 13:21:41;;;;;;;4.90;2.53;;;;;;;;;;5073754;28;20862;-67
2023/05/19 13:24:08;;;;;;;6.00;2.97;;;;;;;;;;5073459;28;20448;-67
2023/05/19 13:26:35;;;;;;;6.40;3.10;;;;;;;;;;5073768;28;20783;-67
2023/05/19 13:29:03;;;;;;;3.97;2.77;;;;;;;;;;5073543;28;20441;-67
2023/05/19 13:31:30;;;;;;;3.17;2.73;;;;;;;;;;5073883;28;20506;-67
2023/05/19 13:33:57;;;;;;;4.00;2.80;;;;;;;;;;5073284;28;20451;-67
2023/05/19 13:36:24;;;;;;;5.73;2.90;;;;;;;;;;5073310;28;20472;-67
2023/05/19 13:38:53;;;;;;;5.43;3.20;;;;;;;;;;5073225;28;20967;-67
2023/05/19 13:41:24;;;;;;;7.07;3.03;;;;;;;;;;5073656;28;20461;-67
2023/05/19 13:43:52;;;;;;;7.93;3.87;;;;;;;;;;5073613;28;20432;-68
2023/05/19 13:46:19;;;;;;;5.30;3.40;;;;;;;;;;5073681;28;20758;-68
2023/05/19 13:48:46;;;;;;;4.63;2.80;;;;;;;;;;5073080;28;20444;-67
2023/05/19 13:51:14;;;;;;;3.43;2.53;;;;;;;;;;5072926;28;20445;-67
2023/05/19 13:53:41;;;;;;;3.80;2.50;;;;;;;;;;5072734;28;20440;-66
2023/05/19 13:56:09;;;;;;;4.10;2.60;;;;;;;;;;5073188;28;20476;-66
2023/05/19 13:58:36;;;;;;;6.10;2.73;;;;;;;;;;5073065;28;20472;-66
2023/05/19 14:01:04;;;;;;;3.17;2.50;;;;;;;;;;5073065;28;20446;-67
2023/05/19 14:03:31;;;;;;;3.70;3.07;;;;;;;;;;5073289;28;20446;-66
2023/05/19 14:05:58;;;;;;;9.63;3.20;;;;;;;;;;5072915;28;20432;-67
2023/05/19 14:08:25;;;;;;;2.70;2.50;;;;;;;;;;5073414;28;20531;-67
2023/05/19 14:10:53;;;;;;;5.33;2.87;;;;;;;;;;5072935;28;20436;-66
2023/05/19 14:13:21;;;;;;;8.30;3.27;;;;;;;;;;5072558;28;20436;-66
2023/05/19 14:15:48;;;;;;;4.77;3.13;;;;;;;;;;5073197;28;20847;-67
2023/05/19 14:18:16;;;;;;;3.07;2.80;;;;;;;;;;5072921;28;20501;-67
2023/05/19 14:20:43;;;;;;;5.73;2.90;;;;;;;;;;5073115;28;20454;-67
2023/05/19 14:23:10;;;;;;;3.57;2.90;;;;;;;;;;5073119;28;20441;-67
2023/05/19 14:25:37;;;;;;;5.60;3.13;;;;;;;;;;5073109;28;20532;-67
2023/05/19 14:28:05;;;;;;;6.10;2.93;;;;;;;;;;5073137;28;20804;-66
2023/05/19 14:30:33;;;;;;;6.37;2.80;;;;;;;;;;5073024;28;20451;-68
2023/05/19 14:33:00;;;;;;;6.53;3.10;;;;;;;;;;5072570;28;20445;-67
2023/05/19 14:35:28;;;;;;;4.80;3.07;;;;;;;;;;5073176;28;20468;-66
2023/05/19 14:37:55;;;;;;;3.00;2.70;;;;;;;;;;5073054;28;20479;-66
2023/05/19 14:40:22;;;;;;;7.50;2.53;;;;;;;;;;5072558;28;20534;-66
2023/05/19 14:42:49;;;;;;;2.60;2.40;;;;;;;;;;5072596;28;20943;-66
2023/05/19 14:45:16;;;;;;;5.10;2.53;;;;;;;;;;5072226;28;20974;-66